sensor_id;sensor_type;location;lat;lon;timestamp;P1;durP1;ratioP1;P2;durP2;ratioP2
11427;SDS011;5770;44.504;11.346;2023-05-10T00:02:02;7.57;;;6.63;;
11427;SDS011;5770;44.504;11.346;2023-05-10T00:04:29;10.18;;;7.28;;
11427;SDS011;5770;44.504;11.346;2023-05-10T00:06:56;7.90;;;6.80;;
11427;SDS011;5770;44.504;11.346;2023-05-10T00:09:23;10.52;;;7.30;;
11427;SDS011;5770;44.504;11.346;2023-05-10T00:11:50;10.70;;;7.53;;
11427;SDS011;5770;44.504;11.346;2023-05-10T00:14:17;7.93;;;7.05;;
11427;SDS011;5770;44.504;11.346;2023-05-10T00:16:44;7.63;;;6.82;;
11427;SDS011;5770;44.504;11.346;2023-05-10T00:19:13;8.25;;;7.28;;
11427;SDS011;5770;44.504;11.346;2023-05-10T00:21:40;8.13;;;7.30;;
11427;SDS011;5770;44.504;11.346;2023-05-10T00:24:07;9.07;;;7.57;;
11427;SDS011;5770;44.504;11.346;2023-05-10T00:26:34;8.63;;;6.85;;
11427;SDS011;5770;44.504;11.346;2023-05-10T00:29:01;7.85;;;6.97;;
11427;SDS011;5770;44.504;11.346;2023-05-10T00:31:28;8.60;;;6.85;;
11427;SDS011;5770;44.504;11.346;2023-05-10T00:33:55;9.60;;;8.10;;
11427;SDS011;5770;44.504;11.346;2023-05-10T00:36:24;8.57;;;6.80;;
11427;SDS011;5770;44.504;11.346;2023-05-10T00:38:51;7.50;;;6.72;;
11427;SDS011;5770;44.504;11.346;2023-05-10T00:41:18;9.25;;;6.70;;
11427;SDS011;5770;44.504;11.346;2023-05-10T00:43:46;8.30;;;5.90;;
11427;SDS011;5770;44.504;11.346;2023-05-10T00:46:13;7.28;;;6.55;;
11427;SDS011;5770;44.504;11.346;2023-05-10T00:48:41;14.82;;;6.30;;
11427;SDS011;5770;44.504;11.346;2023-05-10T00:51:08;8.23;;;6.40;;
11427;SDS011;5770;44.504;11.346;2023-05-10T00:53:40;9.02;;;6.63;;
11427;SDS011;5770;44.504;11.346;2023-05-10T00:56:07;9.55;;;6.82;;
11427;SDS011;5770;44.504;11.346;2023-05-10T00:58:34;8.57;;;6.47;;
11427;SDS011;5770;44.504;11.346;2023-05-10T01:01:01;8.63;;;5.97;;
11427;SDS011;5770;44.504;11.346;2023-05-10T01:03:32;9.85;;;6.97;;
11427;SDS011;5770;44.504;11.346;2023-05-10T01:05:59;6.80;;;6.10;;
11427;SDS011;5770;44.504;11.346;2023-05-10T01:08:26;6.65;;;5.75;;
11427;SDS011;5770;44.504;11.346;2023-05-10T01:10:55;10.27;;;5.68;;
11427;SDS011;5770;44.504;11.346;2023-05-10T01:13:26;6.30;;;5.70;;
11427;SDS011;5770;44.504;11.346;2023-05-10T01:15:57;7.80;;;6.10;;
11427;SDS011;5770;44.504;11.346;2023-05-10T01:18:26;6.90;;;5.88;;
11427;SDS011;5770;44.504;11.346;2023-05-10T01:20:57;6.93;;;6.20;;
11427;SDS011;5770;44.504;11.346;2023-05-10T01:23:31;7.35;;;6.43;;
11427;SDS011;5770;44.504;11.346;2023-05-10T01:26:14;6.95;;;5.97;;
11427;SDS011;5770;44.504;11.346;2023-05-10T01:29:14;7.13;;;6.22;;
11427;SDS011;5770;44.504;11.346;2023-05-10T01:34:34;9.90;;;6.85;;
11427;SDS011;5770;44.504;11.346;2023-05-10T01:37:02;7.47;;;6.15;;
11427;SDS011;5770;44.504;11.346;2023-05-10T01:39:32;7.78;;;5.80;;
11427;SDS011;5770;44.504;11.346;2023-05-10T01:42:04;7.32;;;6.20;;
11427;SDS011;5770;44.504;11.346;2023-05-10T01:44:37;6.25;;;5.63;;
11427;SDS011;5770;44.504;11.346;2023-05-10T01:47:09;6.53;;;5.93;;
11427;SDS011;5770;44.504;11.346;2023-05-10T01:49:41;6.38;;;5.53;;
11427;SDS011;5770;44.504;11.346;2023-05-10T01:52:12;7.80;;;6.32;;
11427;SDS011;5770;44.504;11.346;2023-05-10T01:54:41;7.03;;;5.65;;
11427;SDS011;5770;44.504;11.346;2023-05-10T01:57:09;6.90;;;5.65;;
11427;SDS011;5770;44.504;11.346;2023-05-10T01:59:39;6.07;;;5.47;;
11427;SDS011;5770;44.504;11.346;2023-05-10T02:02:09;6.18;;;5.45;;
11427;SDS011;5770;44.504;11.346;2023-05-10T02:04:38;7.55;;;5.70;;
11427;SDS011;5770;44.504;11.346;2023-05-10T02:07:07;6.55;;;5.63;;
11427;SDS011;5770;44.504;11.346;2023-05-10T02:09:35;7.40;;;5.45;;
11427;SDS011;5770;44.504;11.346;2023-05-10T02:12:04;7.53;;;5.05;;
11427;SDS011;5770;44.504;11.346;2023-05-10T02:14:34;6.85;;;5.38;;
11427;SDS011;5770;44.504;11.346;2023-05-10T02:17:03;5.30;;;4.90;;
11427;SDS011;5770;44.504;11.346;2023-05-10T02:19:31;8.23;;;4.60;;
11427;SDS011;5770;44.504;11.346;2023-05-10T02:22:00;5.55;;;4.30;;
11427;SDS011;5770;44.504;11.346;2023-05-10T02:24:28;13.48;;;5.65;;
11427;SDS011;5770;44.504;11.346;2023-05-10T02:26:55;5.75;;;5.05;;
11427;SDS011;5770;44.504;11.346;2023-05-10T02:29:23;6.97;;;4.85;;
11427;SDS011;5770;44.504;11.346;2023-05-10T02:31:51;5.03;;;4.63;;
11427;SDS011;5770;44.504;11.346;2023-05-10T02:34:20;6.43;;;4.50;;
11427;SDS011;5770;44.504;11.346;2023-05-10T02:36:48;5.50;;;4.03;;
11427;SDS011;5770;44.504;11.346;2023-05-10T02:39:18;5.35;;;4.40;;
11427;SDS011;5770;44.504;11.346;2023-05-10T02:41:46;7.50;;;4.60;;
11427;SDS011;5770;44.504;11.346;2023-05-10T02:44:15;5.57;;;4.38;;
11427;SDS011;5770;44.504;11.346;2023-05-10T02:46:45;7.72;;;4.22;;
11427;SDS011;5770;44.504;11.346;2023-05-10T02:49:13;7.38;;;4.63;;
11427;SDS011;5770;44.504;11.346;2023-05-10T02:51:40;5.20;;;4.40;;
11427;SDS011;5770;44.504;11.346;2023-05-10T02:54:24;6.90;;;4.45;;
11427;SDS011;5770;44.504;11.346;2023-05-10T02:56:54;7.60;;;4.82;;
11427;SDS011;5770;44.504;11.346;2023-05-10T02:59:24;9.02;;;4.43;;
11427;SDS011;5770;44.504;11.346;2023-05-10T03:01:51;5.43;;;4.82;;
11427;SDS011;5770;44.504;11.346;2023-05-10T03:04:18;4.53;;;4.13;;
11427;SDS011;5770;44.504;11.346;2023-05-10T03:06:45;4.95;;;4.45;;
11427;SDS011;5770;44.504;11.346;2023-05-10T03:09:12;4.80;;;4.20;;
11427;SDS011;5770;44.504;11.346;2023-05-10T03:11:46;4.60;;;4.20;;
11427;SDS011;5770;44.504;11.346;2023-05-10T03:14:23;6.78;;;4.72;;
11427;SDS011;5770;44.504;11.346;2023-05-10T03:17:03;8.40;;;5.53;;
11427;SDS011;5770;44.504;11.346;2023-05-10T03:19:36;7.55;;;4.97;;
11427;SDS011;5770;44.504;11.346;2023-05-10T03:22:08;5.85;;;5.03;;
11427;SDS011;5770;44.504;11.346;2023-05-10T03:24:36;5.78;;;5.15;;
11427;SDS011;5770;44.504;11.346;2023-05-10T03:27:08;5.72;;;5.13;;
11427;SDS011;5770;44.504;11.346;2023-05-10T03:29:36;7.10;;;4.53;;
11427;SDS011;5770;44.504;11.346;2023-05-10T03:32:04;6.72;;;5.00;;
11427;SDS011;5770;44.504;11.346;2023-05-10T03:34:31;6.88;;;5.00;;
11427;SDS011;5770;44.504;11.346;2023-05-10T03:36:58;5.13;;;4.60;;
11427;SDS011;5770;44.504;11.346;2023-05-10T03:39:25;8.38;;;5.22;;
11427;SDS011;5770;44.504;11.346;2023-05-10T03:41:53;5.78;;;5.28;;
11427;SDS011;5770;44.504;11.346;2023-05-10T03:44:22;5.15;;;4.43;;
11427;SDS011;5770;44.504;11.346;2023-05-10T03:46:49;6.05;;;4.50;;
11427;SDS011;5770;44.504;11.346;2023-05-10T03:49:16;5.10;;;4.70;;
11427;SDS011;5770;44.504;11.346;2023-05-10T03:51:45;5.28;;;4.78;;
11427;SDS011;5770;44.504;11.346;2023-05-10T03:54:12;6.32;;;4.63;;
11427;SDS011;5770;44.504;11.346;2023-05-10T03:56:39;5.93;;;5.43;;
11427;SDS011;5770;44.504;11.346;2023-05-10T03:59:07;6.03;;;5.40;;
11427;SDS011;5770;44.504;11.346;2023-05-10T04:01:35;5.80;;;4.90;;
11427;SDS011;5770;44.504;11.346;2023-05-10T04:04:03;7.00;;;4.80;;
11427;SDS011;5770;44.504;11.346;2023-05-10T04:06:30;5.47;;;4.95;;
11427;SDS011;5770;44.504;11.346;2023-05-10T04:08:58;5.45;;;4.93;;
11427;SDS011;5770;44.504;11.346;2023-05-10T04:11:28;5.97;;;5.40;;
11427;SDS011;5770;44.504;11.346;2023-05-10T04:13:56;5.00;;;4.60;;
11427;SDS011;5770;44.504;11.346;2023-05-10T04:16:23;9.15;;;5.20;;
11427;SDS011;5770;44.504;11.346;2023-05-10T04:18:51;6.45;;;5.40;;
11427;SDS011;5770;44.504;11.346;2023-05-10T04:21:18;5.50;;;5.00;;
11427;SDS011;5770;44.504;11.346;2023-05-10T04:23:46;6.10;;;5.50;;
11427;SDS011;5770;44.504;11.346;2023-05-10T04:26:13;5.63;;;5.13;;
11427;SDS011;5770;44.504;11.346;2023-05-10T04:28:40;6.00;;;5.00;;
11427;SDS011;5770;44.504;11.346;2023-05-10T04:31:08;5.25;;;4.85;;
11427;SDS011;5770;44.504;11.346;2023-05-10T04:33:35;5.88;;;4.70;;
11427;SDS011;5770;44.504;11.346;2023-05-10T04:36:04;5.38;;;4.70;;
11427;SDS011;5770;44.504;11.346;2023-05-10T04:38:32;4.88;;;4.47;;
11427;SDS011;5770;44.504;11.346;2023-05-10T04:41:05;8.80;;;4.75;;
11427;SDS011;5770;44.504;11.346;2023-05-10T04:43:33;6.15;;;4.68;;
11427;SDS011;5770;44.504;11.346;2023-05-10T04:46:04;6.13;;;4.57;;
11427;SDS011;5770;44.504;11.346;2023-05-10T04:48:32;4.97;;;4.50;;
11427;SDS011;5770;44.504;11.346;2023-05-10T04:50:59;5.57;;;4.53;;
11427;SDS011;5770;44.504;11.346;2023-05-10T04:53:31;7.95;;;4.95;;
11427;SDS011;5770;44.504;11.346;2023-05-10T04:55:58;5.18;;;4.70;;
11427;SDS011;5770;44.504;11.346;2023-05-10T04:58:25;4.68;;;4.28;;
11427;SDS011;5770;44.504;11.346;2023-05-10T05:00:52;4.65;;;4.25;;
11427;SDS011;5770;44.504;11.346;2023-05-10T05:03:19;5.00;;;4.60;;
11427;SDS011;5770;44.504;11.346;2023-05-10T05:05:47;5.60;;;4.65;;
11427;SDS011;5770;44.504;11.346;2023-05-10T05:08:14;5.80;;;4.63;;
11427;SDS011;5770;44.504;11.346;2023-05-10T05:10:43;7.80;;;4.43;;
11427;SDS011;5770;44.504;11.346;2023-05-10T05:13:12;5.88;;;4.88;;
11427;SDS011;5770;44.504;11.346;2023-05-10T05:15:39;5.03;;;4.45;;
11427;SDS011;5770;44.504;11.346;2023-05-10T05:18:06;7.65;;;4.88;;
11427;SDS011;5770;44.504;11.346;2023-05-10T05:20:33;5.93;;;5.40;;
11427;SDS011;5770;44.504;11.346;2023-05-10T05:23:00;8.60;;;4.88;;
11427;SDS011;5770;44.504;11.346;2023-05-10T05:25:28;6.50;;;5.90;;
11427;SDS011;5770;44.504;11.346;2023-05-10T05:27:56;7.68;;;6.47;;
11427;SDS011;5770;44.504;11.346;2023-05-10T05:30:24;5.18;;;4.68;;
11427;SDS011;5770;44.504;11.346;2023-05-10T05:32:51;5.50;;;4.47;;
11427;SDS011;5770;44.504;11.346;2023-05-10T05:35:19;5.28;;;4.75;;
11427;SDS011;5770;44.504;11.346;2023-05-10T05:37:46;6.20;;;4.40;;
11427;SDS011;5770;44.504;11.346;2023-05-10T05:40:13;5.32;;;4.82;;
11427;SDS011;5770;44.504;11.346;2023-05-10T05:42:40;6.35;;;4.30;;
11427;SDS011;5770;44.504;11.346;2023-05-10T05:45:12;4.60;;;4.20;;
11427;SDS011;5770;44.504;11.346;2023-05-10T05:47:39;5.18;;;4.55;;
11427;SDS011;5770;44.504;11.346;2023-05-10T05:50:07;4.68;;;4.18;;
11427;SDS011;5770;44.504;11.346;2023-05-10T05:52:34;6.30;;;4.47;;
11427;SDS011;5770;44.504;11.346;2023-05-10T05:55:01;8.35;;;4.38;;
11427;SDS011;5770;44.504;11.346;2023-05-10T05:57:28;5.75;;;4.88;;
11427;SDS011;5770;44.504;11.346;2023-05-10T05:59:56;6.43;;;4.72;;
11427;SDS011;5770;44.504;11.346;2023-05-10T06:02:24;5.30;;;4.53;;
11427;SDS011;5770;44.504;11.346;2023-05-10T06:04:52;5.25;;;4.75;;
11427;SDS011;5770;44.504;11.346;2023-05-10T06:07:19;38.83;;;7.72;;
11427;SDS011;5770;44.504;11.346;2023-05-10T06:09:46;13.35;;;5.63;;
11427;SDS011;5770;44.504;11.346;2023-05-10T06:12:13;6.35;;;4.50;;
11427;SDS011;5770;44.504;11.346;2023-05-10T06:14:41;4.85;;;4.40;;
11427;SDS011;5770;44.504;11.346;2023-05-10T06:17:08;6.18;;;4.75;;
11427;SDS011;5770;44.504;11.346;2023-05-10T06:19:37;4.95;;;4.55;;
11427;SDS011;5770;44.504;11.346;2023-05-10T06:22:04;4.90;;;4.50;;
11427;SDS011;5770;44.504;11.346;2023-05-10T06:24:31;6.65;;;5.72;;
11427;SDS011;5770;44.504;11.346;2023-05-10T06:26:59;9.15;;;5.15;;
11427;SDS011;5770;44.504;11.346;2023-05-10T06:29:27;6.10;;;5.10;;
11427;SDS011;5770;44.504;11.346;2023-05-10T06:31:54;5.57;;;4.82;;
11427;SDS011;5770;44.504;11.346;2023-05-10T06:34:21;6.43;;;5.00;;
11427;SDS011;5770;44.504;11.346;2023-05-10T06:36:50;5.90;;;4.90;;
11427;SDS011;5770;44.504;11.346;2023-05-10T06:39:17;7.75;;;4.78;;
11427;SDS011;5770;44.504;11.346;2023-05-10T06:41:44;5.97;;;5.15;;
11427;SDS011;5770;44.504;11.346;2023-05-10T06:44:12;8.30;;;5.65;;
11427;SDS011;5770;44.504;11.346;2023-05-10T06:46:39;5.82;;;4.93;;
11427;SDS011;5770;44.504;11.346;2023-05-10T06:49:06;5.07;;;4.68;;
11427;SDS011;5770;44.504;11.346;2023-05-10T06:51:34;5.70;;;5.07;;
11427;SDS011;5770;44.504;11.346;2023-05-10T06:54:02;7.28;;;5.18;;
11427;SDS011;5770;44.504;11.346;2023-05-10T06:56:29;7.15;;;5.85;;
11427;SDS011;5770;44.504;11.346;2023-05-10T06:58:57;8.80;;;5.75;;
11427;SDS011;5770;44.504;11.346;2023-05-10T07:01:24;5.57;;;4.93;;
11427;SDS011;5770;44.504;11.346;2023-05-10T07:03:51;6.30;;;5.13;;
11427;SDS011;5770;44.504;11.346;2023-05-10T07:06:18;6.05;;;4.70;;
11427;SDS011;5770;44.504;11.346;2023-05-10T07:08:46;5.40;;;4.90;;
11427;SDS011;5770;44.504;11.346;2023-05-10T07:11:14;5.50;;;4.93;;
11427;SDS011;5770;44.504;11.346;2023-05-10T07:13:41;5.53;;;5.03;;
11427;SDS011;5770;44.504;11.346;2023-05-10T07:16:11;5.30;;;4.80;;
11427;SDS011;5770;44.504;11.346;2023-05-10T07:18:38;5.00;;;4.47;;
11427;SDS011;5770;44.504;11.346;2023-05-10T07:21:05;5.53;;;5.03;;
11427;SDS011;5770;44.504;11.346;2023-05-10T07:23:33;4.90;;;4.40;;
11427;SDS011;5770;44.504;11.346;2023-05-10T07:26:00;5.53;;;4.88;;
11427;SDS011;5770;44.504;11.346;2023-05-10T07:28:29;6.05;;;5.07;;
11427;SDS011;5770;44.504;11.346;2023-05-10T07:30:56;5.65;;;5.00;;
11427;SDS011;5770;44.504;11.346;2023-05-10T07:33:24;6.45;;;4.57;;
11427;SDS011;5770;44.504;11.346;2023-05-10T07:35:51;4.85;;;4.45;;
11427;SDS011;5770;44.504;11.346;2023-05-10T07:38:18;5.55;;;4.70;;
11427;SDS011;5770;44.504;11.346;2023-05-10T07:40:45;5.22;;;4.82;;
11427;SDS011;5770;44.504;11.346;2023-05-10T07:43:13;5.03;;;4.50;;
11427;SDS011;5770;44.504;11.346;2023-05-10T07:45:41;4.78;;;4.38;;
11427;SDS011;5770;44.504;11.346;2023-05-10T07:48:08;5.10;;;4.60;;
11427;SDS011;5770;44.504;11.346;2023-05-10T07:50:36;5.15;;;4.70;;
11427;SDS011;5770;44.504;11.346;2023-05-10T07:53:03;4.60;;;4.20;;
11427;SDS011;5770;44.504;11.346;2023-05-10T07:55:30;5.18;;;4.68;;
11427;SDS011;5770;44.504;11.346;2023-05-10T07:57:58;5.20;;;3.97;;
11427;SDS011;5770;44.504;11.346;2023-05-10T08:00:26;8.32;;;4.30;;
11427;SDS011;5770;44.504;11.346;2023-05-10T08:02:54;5.03;;;4.53;;
11427;SDS011;5770;44.504;11.346;2023-05-10T08:05:22;4.30;;;4.00;;
11427;SDS011;5770;44.504;11.346;2023-05-10T08:07:49;4.95;;;4.50;;
11427;SDS011;5770;44.504;11.346;2023-05-10T08:10:16;4.38;;;3.97;;
11427;SDS011;5770;44.504;11.346;2023-05-10T08:12:43;4.28;;;3.88;;
11427;SDS011;5770;44.504;11.346;2023-05-10T08:15:11;4.10;;;3.72;;
11427;SDS011;5770;44.504;11.346;2023-05-10T08:17:38;5.60;;;4.32;;
11427;SDS011;5770;44.504;11.346;2023-05-10T08:20:07;3.78;;;3.47;;
11427;SDS011;5770;44.504;11.346;2023-05-10T08:22:34;4.47;;;4.07;;
11427;SDS011;5770;44.504;11.346;2023-05-10T08:25:02;5.47;;;3.90;;
11427;SDS011;5770;44.504;11.346;2023-05-10T08:27:30;7.07;;;4.45;;
11427;SDS011;5770;44.504;11.346;2023-05-10T08:29:57;5.57;;;4.50;;
11427;SDS011;5770;44.504;11.346;2023-05-10T08:32:24;6.07;;;4.05;;
11427;SDS011;5770;44.504;11.346;2023-05-10T08:34:51;4.88;;;4.43;;
11427;SDS011;5770;44.504;11.346;2023-05-10T08:37:20;4.57;;;4.18;;
11427;SDS011;5770;44.504;11.346;2023-05-10T08:39:47;5.30;;;4.80;;
11427;SDS011;5770;44.504;11.346;2023-05-10T08:42:15;8.85;;;4.53;;
11427;SDS011;5770;44.504;11.346;2023-05-10T08:44:43;5.47;;;4.45;;
11427;SDS011;5770;44.504;11.346;2023-05-10T08:47:11;5.97;;;4.95;;
11427;SDS011;5770;44.504;11.346;2023-05-10T08:49:39;6.00;;;4.45;;
11427;SDS011;5770;44.504;11.346;2023-05-10T08:52:07;5.68;;;5.00;;
11427;SDS011;5770;44.504;11.346;2023-05-10T08:54:39;6.75;;;4.97;;
11427;SDS011;5770;44.504;11.346;2023-05-10T08:57:10;5.28;;;4.78;;
11427;SDS011;5770;44.504;11.346;2023-05-10T08:59:37;6.32;;;4.68;;
11427;SDS011;5770;44.504;11.346;2023-05-10T09:02:10;7.90;;;5.30;;
11427;SDS011;5770;44.504;11.346;2023-05-10T09:04:39;4.60;;;4.20;;
11427;SDS011;5770;44.504;11.346;2023-05-10T09:07:07;6.47;;;4.57;;
11427;SDS011;5770;44.504;11.346;2023-05-10T09:09:34;5.35;;;4.80;;
11427;SDS011;5770;44.504;11.346;2023-05-10T09:12:03;5.22;;;4.72;;
11427;SDS011;5770;44.504;11.346;2023-05-10T09:14:31;7.50;;;5.07;;
11427;SDS011;5770;44.504;11.346;2023-05-10T09:17:01;4.95;;;4.45;;
11427;SDS011;5770;44.504;11.346;2023-05-10T09:19:28;6.30;;;5.00;;
11427;SDS011;5770;44.504;11.346;2023-05-10T09:21:56;5.57;;;4.90;;
11427;SDS011;5770;44.504;11.346;2023-05-10T09:24:25;9.10;;;5.63;;
11427;SDS011;5770;44.504;11.346;2023-05-10T09:26:53;8.60;;;6.45;;
11427;SDS011;5770;44.504;11.346;2023-05-10T09:29:21;5.13;;;4.63;;
11427;SDS011;5770;44.504;11.346;2023-05-10T09:31:50;6.32;;;5.72;;
11427;SDS011;5770;44.504;11.346;2023-05-10T09:34:20;5.43;;;4.93;;
11427;SDS011;5770;44.504;11.346;2023-05-10T09:36:51;5.88;;;5.05;;
11427;SDS011;5770;44.504;11.346;2023-05-10T09:39:19;6.40;;;4.82;;
11427;SDS011;5770;44.504;11.346;2023-05-10T09:41:46;7.68;;;5.47;;
11427;SDS011;5770;44.504;11.346;2023-05-10T09:44:16;7.57;;;6.38;;
11427;SDS011;5770;44.504;11.346;2023-05-10T09:46:52;6.32;;;5.65;;
11427;SDS011;5770;44.504;11.346;2023-05-10T09:49:19;7.00;;;5.47;;
11427;SDS011;5770;44.504;11.346;2023-05-10T09:51:47;6.78;;;4.43;;
11427;SDS011;5770;44.504;11.346;2023-05-10T09:54:23;8.93;;;4.97;;
11427;SDS011;5770;44.504;11.346;2023-05-10T09:56:50;5.25;;;4.28;;
11427;SDS011;5770;44.504;11.346;2023-05-10T09:59:18;5.55;;;4.45;;
11427;SDS011;5770;44.504;11.346;2023-05-10T10:01:50;13.55;;;4.60;;
11427;SDS011;5770;44.504;11.346;2023-05-10T10:04:17;9.38;;;5.03;;
11427;SDS011;5770;44.504;11.346;2023-05-10T10:06:46;5.53;;;5.03;;
11427;SDS011;5770;44.504;11.346;2023-05-10T10:09:14;5.07;;;4.20;;
11427;SDS011;5770;44.504;11.346;2023-05-10T10:11:42;5.68;;;5.18;;
11427;SDS011;5770;44.504;11.346;2023-05-10T10:14:09;5.60;;;5.10;;
11427;SDS011;5770;44.504;11.346;2023-05-10T10:16:38;4.70;;;4.30;;
11427;SDS011;5770;44.504;11.346;2023-05-10T10:19:07;4.95;;;4.32;;
11427;SDS011;5770;44.504;11.346;2023-05-10T10:21:34;7.65;;;4.32;;
11427;SDS011;5770;44.504;11.346;2023-05-10T10:24:02;6.40;;;5.07;;
11427;SDS011;5770;44.504;11.346;2023-05-10T10:26:30;5.35;;;4.85;;
11427;SDS011;5770;44.504;11.346;2023-05-10T10:29:03;6.82;;;5.03;;
11427;SDS011;5770;44.504;11.346;2023-05-10T10:31:41;5.93;;;5.43;;
11427;SDS011;5770;44.504;11.346;2023-05-10T10:34:17;6.50;;;5.90;;
11427;SDS011;5770;44.504;11.346;2023-05-10T10:36:52;6.70;;;6.10;;
11427;SDS011;5770;44.504;11.346;2023-05-10T10:39:19;8.82;;;6.25;;
11427;SDS011;5770;44.504;11.346;2023-05-10T10:41:50;8.02;;;6.45;;
11427;SDS011;5770;44.504;11.346;2023-05-10T10:44:24;8.60;;;5.63;;
11427;SDS011;5770;44.504;11.346;2023-05-10T10:46:58;6.40;;;5.75;;
11427;SDS011;5770;44.504;11.346;2023-05-10T10:49:30;7.43;;;5.20;;
11427;SDS011;5770;44.504;11.346;2023-05-10T10:52:20;5.10;;;4.68;;
11427;SDS011;5770;44.504;11.346;2023-05-10T10:54:53;8.07;;;5.38;;
11427;SDS011;5770;44.504;11.346;2023-05-10T10:57:24;5.30;;;4.80;;
11427;SDS011;5770;44.504;11.346;2023-05-10T10:59:53;5.07;;;4.57;;
11427;SDS011;5770;44.504;11.346;2023-05-10T11:02:32;7.03;;;4.85;;
11427;SDS011;5770;44.504;11.346;2023-05-10T11:07:56;6.85;;;6.15;;
11427;SDS011;5770;44.504;11.346;2023-05-10T11:10:24;9.40;;;7.10;;
11427;SDS011;5770;44.504;11.346;2023-05-10T11:12:52;7.80;;;7.00;;
11427;SDS011;5770;44.504;11.346;2023-05-10T11:15:27;8.27;;;7.35;;
11427;SDS011;5770;44.504;11.346;2023-05-10T11:17:55;8.15;;;7.35;;
11427;SDS011;5770;44.504;11.346;2023-05-10T11:20:23;7.38;;;6.68;;
11427;SDS011;5770;44.504;11.346;2023-05-10T11:23:10;8.13;;;7.35;;
11427;SDS011;5770;44.504;11.346;2023-05-10T11:25:41;7.40;;;6.70;;
11427;SDS011;5770;44.504;11.346;2023-05-10T11:28:09;6.82;;;6.00;;
11427;SDS011;5770;44.504;11.346;2023-05-10T11:30:37;7.55;;;6.85;;
11427;SDS011;5770;44.504;11.346;2023-05-10T11:33:05;8.52;;;6.50;;
11427;SDS011;5770;44.504;11.346;2023-05-10T11:35:36;6.75;;;6.15;;
11427;SDS011;5770;44.504;11.346;2023-05-10T11:38:06;6.70;;;5.97;;
11427;SDS011;5770;44.504;11.346;2023-05-10T11:40:34;5.60;;;5.07;;
11427;SDS011;5770;44.504;11.346;2023-05-10T11:43:02;7.25;;;5.95;;
11427;SDS011;5770;44.504;11.346;2023-05-10T11:45:29;6.13;;;5.57;;
11427;SDS011;5770;44.504;11.346;2023-05-10T11:47:58;7.30;;;6.47;;
11427;SDS011;5770;44.504;11.346;2023-05-10T11:50:26;7.57;;;6.40;;
11427;SDS011;5770;44.504;11.346;2023-05-10T11:52:56;7.57;;;6.78;;
11427;SDS011;5770;44.504;11.346;2023-05-10T11:55:25;11.23;;;6.53;;
11427;SDS011;5770;44.504;11.346;2023-05-10T11:57:52;7.30;;;5.78;;
11427;SDS011;5770;44.504;11.346;2023-05-10T12:00:20;6.65;;;5.95;;
11427;SDS011;5770;44.504;11.346;2023-05-10T12:02:47;6.18;;;5.20;;
11427;SDS011;5770;44.504;11.346;2023-05-10T12:05:15;5.18;;;4.72;;
11427;SDS011;5770;44.504;11.346;2023-05-10T12:07:42;5.38;;;4.88;;
11427;SDS011;5770;44.504;11.346;2023-05-10T12:10:10;6.43;;;5.80;;
11427;SDS011;5770;44.504;11.346;2023-05-10T12:12:41;5.60;;;5.10;;
11427;SDS011;5770;44.504;11.346;2023-05-10T12:15:12;5.28;;;4.78;;
11427;SDS011;5770;44.504;11.346;2023-05-10T12:17:43;5.60;;;5.10;;
11427;SDS011;5770;44.504;11.346;2023-05-10T12:20:15;5.47;;;5.07;;
11427;SDS011;5770;44.504;11.346;2023-05-10T12:22:46;6.28;;;5.53;;
11427;SDS011;5770;44.504;11.346;2023-05-10T12:25:14;7.18;;;5.40;;
11427;SDS011;5770;44.504;11.346;2023-05-10T12:27:53;6.53;;;5.20;;
11427;SDS011;5770;44.504;11.346;2023-05-10T12:30:22;5.80;;;4.95;;
11427;SDS011;5770;44.504;11.346;2023-05-10T12:32:50;5.15;;;4.75;;
11427;SDS011;5770;44.504;11.346;2023-05-10T12:35:19;5.53;;;4.95;;
11427;SDS011;5770;44.504;11.346;2023-05-10T12:37:49;5.65;;;4.68;;
11427;SDS011;5770;44.504;11.346;2023-05-10T12:40:17;5.10;;;4.70;;
11427;SDS011;5770;44.504;11.346;2023-05-10T12:42:46;4.93;;;4.53;;
11427;SDS011;5770;44.504;11.346;2023-05-10T12:45:15;6.20;;;5.38;;
11427;SDS011;5770;44.504;11.346;2023-05-10T12:47:44;6.30;;;4.80;;
11427;SDS011;5770;44.504;11.346;2023-05-10T12:50:11;4.95;;;4.50;;
11427;SDS011;5770;44.504;11.346;2023-05-10T12:52:45;4.15;;;3.85;;
11427;SDS011;5770;44.504;11.346;2023-05-10T12:55:12;4.88;;;4.47;;
11427;SDS011;5770;44.504;11.346;2023-05-10T12:57:39;4.75;;;3.72;;
11427;SDS011;5770;44.504;11.346;2023-05-10T13:00:10;5.05;;;4.10;;
11427;SDS011;5770;44.504;11.346;2023-05-10T13:02:39;4.47;;;4.07;;
11427;SDS011;5770;44.504;11.346;2023-05-10T13:05:08;5.47;;;4.65;;
11427;SDS011;5770;44.504;11.346;2023-05-10T13:07:38;5.22;;;4.22;;
11427;SDS011;5770;44.504;11.346;2023-05-10T13:10:05;5.63;;;4.25;;
11427;SDS011;5770;44.504;11.346;2023-05-10T13:12:34;4.93;;;4.28;;
11427;SDS011;5770;44.504;11.346;2023-05-10T13:15:02;4.38;;;3.90;;
11427;SDS011;5770;44.504;11.346;2023-05-10T13:17:29;4.70;;;4.10;;
11427;SDS011;5770;44.504;11.346;2023-05-10T13:19:58;4.60;;;4.15;;
11427;SDS011;5770;44.504;11.346;2023-05-10T13:22:25;4.78;;;4.28;;
11427;SDS011;5770;44.504;11.346;2023-05-10T13:24:52;4.88;;;4.32;;
11427;SDS011;5770;44.504;11.346;2023-05-10T13:27:19;4.70;;;3.80;;
11427;SDS011;5770;44.504;11.346;2023-05-10T13:29:46;5.53;;;4.57;;
11427;SDS011;5770;44.504;11.346;2023-05-10T13:32:14;6.97;;;3.85;;
11427;SDS011;5770;44.504;11.346;2023-05-10T13:34:41;4.53;;;4.15;;
11427;SDS011;5770;44.504;11.346;2023-05-10T13:37:09;4.70;;;4.30;;
11427;SDS011;5770;44.504;11.346;2023-05-10T13:39:36;4.22;;;3.80;;
11427;SDS011;5770;44.504;11.346;2023-05-10T13:42:03;4.05;;;3.65;;
11427;SDS011;5770;44.504;11.346;2023-05-10T13:44:31;6.68;;;4.00;;
11427;SDS011;5770;44.504;11.346;2023-05-10T13:46:58;5.10;;;3.97;;
11427;SDS011;5770;44.504;11.346;2023-05-10T13:49:26;6.13;;;4.22;;
11427;SDS011;5770;44.504;11.346;2023-05-10T13:51:53;5.32;;;4.03;;
11427;SDS011;5770;44.504;11.346;2023-05-10T13:54:21;5.63;;;4.30;;
11427;SDS011;5770;44.504;11.346;2023-05-10T13:56:50;5.25;;;3.70;;
11427;SDS011;5770;44.504;11.346;2023-05-10T13:59:17;5.80;;;3.92;;
11427;SDS011;5770;44.504;11.346;2023-05-10T14:01:44;5.35;;;4.40;;
11427;SDS011;5770;44.504;11.346;2023-05-10T14:04:11;4.75;;;4.35;;
11427;SDS011;5770;44.504;11.346;2023-05-10T14:06:38;4.60;;;4.10;;
11427;SDS011;5770;44.504;11.346;2023-05-10T14:09:05;4.88;;;4.38;;
11427;SDS011;5770;44.504;11.346;2023-05-10T14:11:34;4.45;;;4.13;;
11427;SDS011;5770;44.504;11.346;2023-05-10T14:14:04;6.28;;;4.25;;
11427;SDS011;5770;44.504;11.346;2023-05-10T14:16:41;4.68;;;4.28;;
11427;SDS011;5770;44.504;11.346;2023-05-10T14:19:08;4.95;;;4.38;;
11427;SDS011;5770;44.504;11.346;2023-05-10T14:21:35;4.28;;;3.88;;
11427;SDS011;5770;44.504;11.346;2023-05-10T14:24:03;3.70;;;3.40;;
11427;SDS011;5770;44.504;11.346;2023-05-10T14:26:31;3.92;;;3.53;;
11427;SDS011;5770;44.504;11.346;2023-05-10T14:29:00;4.63;;;3.95;;
11427;SDS011;5770;44.504;11.346;2023-05-10T14:31:27;5.45;;;3.95;;
11427;SDS011;5770;44.504;11.346;2023-05-10T14:33:55;4.40;;;3.90;;
11427;SDS011;5770;44.504;11.346;2023-05-10T14:36:22;4.40;;;4.00;;
11427;SDS011;5770;44.504;11.346;2023-05-10T14:38:49;4.47;;;4.07;;
11427;SDS011;5770;44.504;11.346;2023-05-10T14:41:17;4.50;;;4.10;;
11427;SDS011;5770;44.504;11.346;2023-05-10T14:43:45;4.43;;;3.63;;
11427;SDS011;5770;44.504;11.346;2023-05-10T14:46:12;4.13;;;3.80;;
11427;SDS011;5770;44.504;11.346;2023-05-10T14:48:39;4.95;;;4.10;;
11427;SDS011;5770;44.504;11.346;2023-05-10T14:51:06;5.15;;;4.10;;
11427;SDS011;5770;44.504;11.346;2023-05-10T14:53:33;4.72;;;4.30;;
11427;SDS011;5770;44.504;11.346;2023-05-10T14:56:01;6.25;;;4.85;;
11427;SDS011;5770;44.504;11.346;2023-05-10T14:58:28;8.90;;;4.68;;
11427;SDS011;5770;44.504;11.346;2023-05-10T15:00:57;5.47;;;4.93;;
11427;SDS011;5770;44.504;11.346;2023-05-10T15:03:27;5.00;;;4.50;;